Time;durP1;ratioP1;P1;durP2;ratioP2;P2;SDS_P1;SDS_P2;PMS_P1;PMS_P2;Temp;Humidity;BMP_temperature;BMP_pressure;BME280_temperature;BME280_humidity;BME280_pressure;Samples;Min_cycle;Max_cycle;Signal;HPM_P1;HPM_P2
2023/07/20 00:01:51;;;;;;;1.80;1.20;;;27.40;45.10;;;;;;4982170;28;20026;-65
2023/07/20 00:04:17;;;;;;;1.05;0.90;;;27.40;45.20;;;;;;4982559;28;20456;-65
2023/07/20 00:06:43;;;;;;;1.63;1.10;;;27.30;45.10;;;;;;4979889;28;20048;-65
2023/07/20 00:09:08;;;;;;;1.42;1.05;;;27.40;45.10;;;;;;4970791;28;20472;-64
2023/07/20 00:11:39;;;;;;;1.63;1.13;;;27.40;45.10;;;;;;4981220;28;20066;-65
2023/07/20 00:14:06;;;;;;;1.35;1.10;;;27.40;45.10;;;;;;4964514;28;20395;-65
2023/07/20 00:16:31;;;;;;;1.77;1.20;;;27.30;45.10;;;;;;4983082;28;20585;-65
2023/07/20 00:18:57;;;;;;;1.60;1.13;;;27.40;45.20;;;;;;4972077;28;20035;-65
2023/07/20 00:21:23;;;;;;;1.42;1.08;;;27.30;45.10;;;;;;4982194;28;20440;-65
2023/07/20 00:23:48;;;;;;;1.40;1.10;;;27.40;45.20;;;;;;4978646;28;20415;-65
2023/07/20 00:26:14;;;;;;;1.50;1.10;;;27.40;45.20;;;;;;4970483;28;20495;-65
2023/07/20 00:28:40;;;;;;;1.40;1.10;;;27.40;45.20;;;;;;4980684;28;20037;-65
2023/07/20 00:31:05;;;;;;;2.00;1.20;;;27.40;45.20;;;;;;4971321;28;20125;-64
2023/07/20 00:33:31;;;;;;;1.77;1.23;;;27.40;45.20;;;;;;4980879;28;20085;-64
2023/07/20 00:35:57;;;;;;;1.63;1.20;;;27.30;45.20;;;;;;4979505;28;20088;-65
2023/07/20 00:38:22;;;;;;;1.33;1.10;;;27.30;45.20;;;;;;4981374;28;20058;-65
2023/07/20 00:40:49;;;;;;;1.73;1.00;;;27.30;45.20;;;;;;4978062;28;20030;-65
2023/07/20 00:43:15;;;;;;;2.30;1.27;;;27.30;45.20;;;;;;4980175;28;20595;-65
2023/07/20 00:45:42;;;;;;;1.58;1.10;;;27.30;45.30;;;;;;4966671;28;20018;-65
2023/07/20 00:48:08;;;;;;;2.33;1.40;;;27.30;45.20;;;;;;4981428;28;20749;-67
2023/07/20 00:50:34;;;;;;;1.48;1.10;;;27.40;45.30;;;;;;4980369;28;20026;-66
2023/07/20 00:53:03;;;;;;;2.13;1.15;;;27.40;45.30;;;;;;4981525;28;20030;-66
2023/07/20 00:55:29;;;;;;;1.30;1.00;;;27.30;45.30;;;;;;4976504;28;20053;-67
2023/07/20 00:57:55;;;;;;;1.80;1.23;;;27.30;45.30;;;;;;4979952;28;20026;-66
2023/07/20 01:00:20;;;;;;;1.85;1.10;;;27.30;45.30;;;;;;4982580;28;20516;-65
2023/07/20 01:02:46;;;;;;;1.88;1.05;;;27.30;45.30;;;;;;4980259;28;20490;-66
2023/07/20 01:05:16;;;;;;;1.85;1.20;;;27.30;45.30;;;;;;4980673;28;20045;-66
2023/07/20 01:08:02;;;;;;;2.17;1.17;;;27.30;45.30;;;;;;4979732;28;20382;-66
2023/07/20 01:10:39;;;;;;;2.08;1.40;;;27.30;45.40;;;;;;4960359;28;20065;-66
2023/07/20 01:13:07;;;;;;;1.52;1.15;;;27.30;45.40;;;;;;4981088;28;20026;-66
2023/07/20 01:15:34;;;;;;;1.60;1.05;;;27.30;45.40;;;;;;4966045;28;20119;-66
2023/07/20 01:18:01;;;;;;;1.45;1.10;;;27.30;45.40;;;;;;4978638;28;20111;-66
2023/07/20 01:20:30;;;;;;;2.05;1.30;;;27.30;45.40;;;;;;4981910;28;20486;-66
2023/07/20 01:23:14;;;;;;;1.50;1.00;;;27.30;45.40;;;;;;4966467;28;20033;-66
2023/07/20 01:25:42;;;;;;;1.60;1.15;;;27.30;45.40;;;;;;4978329;28;20038;-65
2023/07/20 01:28:50;;;;;;;1.73;1.13;;;27.30;45.40;;;;;;4979202;28;20560;-65
2023/07/20 01:31:22;;;;;;;1.63;1.15;;;27.30;45.40;;;;;;4978711;28;20150;-65
2023/07/20 01:33:50;;;;;;;1.35;1.00;;;27.30;45.50;;;;;;4963740;28;20498;-65
2023/07/20 01:36:18;;;;;;;1.20;1.00;;;27.30;45.50;;;;;;4964608;28;20483;-66
2023/07/20 01:38:44;;;;;;;1.42;1.00;;;27.30;45.50;;;;;;4980670;28;20117;-65
2023/07/20 01:41:11;;;;;;;1.45;1.00;;;27.30;45.40;;;;;;4978559;28;20505;-66
2023/07/20 01:43:37;;;;;;;1.50;1.10;;;27.30;45.50;;;;;;4980577;28;20489;-65
2023/07/20 01:46:02;;;;;;;1.52;0.98;;;27.30;45.50;;;;;;4981419;28;20081;-65
2023/07/20 01:48:28;;;;;;;1.67;1.20;;;27.30;45.50;;;;;;4979071;28;20030;-65
2023/07/20 01:50:54;;;;;;;1.80;1.20;;;27.30;45.50;;;;;;4978777;28;20031;-65
2023/07/20 01:53:20;;;;;;;1.30;0.90;;;27.30;45.50;;;;;;4980655;28;20109;-67
2023/07/20 01:55:46;;;;;;;1.60;1.10;;;27.30;45.50;;;;;;4979103;28;20038;-66
2023/07/20 01:58:12;;;;;;;1.58;0.88;;;27.30;45.50;;;;;;4979333;28;20419;-66
2023/07/20 02:00:38;;;;;;;1.50;1.10;;;27.30;45.50;;;;;;4978696;28;20037;-65
2023/07/20 02:03:04;;;;;;;1.27;0.90;;;27.30;45.50;;;;;;4978161;28;20356;-66
2023/07/20 02:05:29;;;;;;;1.20;1.00;;;27.30;45.50;;;;;;4978892;28;20054;-65
2023/07/20 02:07:55;;;;;;;1.75;1.08;;;27.30;45.50;;;;;;4965413;28;20073;-65
2023/07/20 02:10:21;;;;;;;1.15;1.00;;;27.30;45.50;;;;;;4977486;28;20384;-66
2023/07/20 02:12:47;;;;;;;1.40;1.00;;;27.30;45.60;;;;;;4978666;28;20042;-67
2023/07/20 02:15:16;;;;;;;1.42;1.00;;;27.30;45.60;;;;;;4980581;28;20109;-67
2023/07/20 02:17:42;;;;;;;1.65;1.13;;;27.30;45.60;;;;;;4980716;28;20109;-67
2023/07/20 02:20:09;;;;;;;1.35;1.00;;;27.30;45.60;;;;;;4978924;28;20065;-67
2023/07/20 02:22:39;;;;;;;1.30;0.93;;;27.30;45.70;;;;;;4979902;28;20105;-67
2023/07/20 02:25:06;;;;;;;1.83;1.20;;;27.30;45.60;;;;;;4962097;28;20027;-66
2023/07/20 02:27:35;;;;;;;1.33;1.00;;;27.30;45.60;;;;;;4978564;28;20031;-66
2023/07/20 02:30:01;;;;;;;1.48;1.05;;;27.30;45.60;;;;;;4979192;28;20026;-66
2023/07/20 02:32:28;;;;;;;1.60;1.10;;;27.30;45.60;;;;;;4977672;28;20062;-67
2023/07/20 02:34:53;;;;;;;1.20;1.00;;;27.30;46.10;;;;;;4964042;28;20054;-67
2023/07/20 02:37:19;;;;;;;1.38;0.90;;;27.30;45.70;;;;;;4977510;28;20621;-66
2023/07/20 02:39:45;;;;;;;1.75;1.15;;;27.30;45.60;;;;;;4980924;28;20486;-66
2023/07/20 02:42:10;;;;;;;1.08;0.95;;;27.30;45.60;;;;;;4977080;28;20126;-67
2023/07/20 02:44:36;;;;;;;1.60;1.00;;;27.30;45.60;;;;;;4977964;28;20030;-67
2023/07/20 02:47:02;;;;;;;1.38;1.00;;;27.30;45.70;;;;;;4979612;28;20027;-67
2023/07/20 02:49:28;;;;;;;0.80;0.80;;;27.30;45.60;;;;;;4979005;28;20034;-66
2023/07/20 02:51:54;;;;;;;1.10;0.90;;;27.30;45.70;;;;;;4980867;28;20125;-66
2023/07/20 02:54:19;;;;;;;1.35;1.00;;;27.30;45.70;;;;;;4969530;28;20038;-66
2023/07/20 02:56:45;;;;;;;1.77;1.00;;;27.30;45.70;;;;;;4977950;28;20066;-66
2023/07/20 02:59:11;;;;;;;1.48;1.00;;;27.20;45.60;;;;;;4979254;28;20486;-67
2023/07/20 03:01:36;;;;;;;1.48;1.00;;;27.30;45.70;;;;;;4962829;28;20344;-66
2023/07/20 03:04:02;;;;;;;1.15;0.90;;;27.30;45.70;;;;;;4977548;28;20037;-67
2023/07/20 03:06:28;;;;;;;1.05;0.90;;;27.30;45.70;;;;;;4978567;28;20470;-66
2023/07/20 03:08:53;;;;;;;1.58;0.90;;;27.30;45.60;;;;;;4962490;28;20410;-66
2023/07/20 03:11:20;;;;;;;1.20;0.95;;;27.30;45.60;;;;;;4978443;28;20034;-66
2023/07/20 03:13:47;;;;;;;1.25;0.85;;;27.20;45.60;;;;;;4978796;28;20027;-66
2023/07/20 03:16:15;;;;;;;1.55;1.08;;;27.20;45.60;;;;;;4979316;28;20073;-66
2023/07/20 03:18:41;;;;;;;1.27;1.00;;;27.20;45.60;;;;;;4979325;28;20035;-67
2023/07/20 03:21:08;;;;;;;1.85;1.02;;;27.20;45.60;;;;;;4962231;28;20375;-67
2023/07/20 03:23:34;;;;;;;1.00;0.90;;;27.30;45.70;;;;;;4979630;28;20486;-67
2023/07/20 03:26:00;;;;;;;1.50;1.00;;;27.20;45.60;;;;;;4977558;28;20022;-66
2023/07/20 03:28:26;;;;;;;1.35;0.90;;;27.20;45.60;;;;;;4979387;28;20035;-67
2023/07/20 03:30:56;;;;;;;1.42;0.90;;;27.20;45.60;;;;;;4977464;28;20888;-66
2023/07/20 03:33:31;;;;;;;1.23;0.98;;;27.20;45.60;;;;;;4980714;28;20061;-66
2023/07/20 03:35:57;;;;;;;1.15;0.85;;;27.20;45.60;;;;;;4963085;28;20120;-66
2023/07/20 03:38:24;;;;;;;1.10;1.00;;;27.20;45.60;;;;;;4975163;28;20034;-66
2023/07/20 03:41:00;;;;;;;1.67;1.00;;;27.20;45.60;;;;;;4977018;28;20030;-65
2023/07/20 03:43:27;;;;;;;1.00;0.90;;;27.20;45.60;;;;;;4978519;28;20506;-66
2023/07/20 03:45:53;;;;;;;1.42;1.00;;;27.20;45.70;;;;;;4978333;28;20030;-66
2023/07/20 03:48:21;;;;;;;1.17;0.95;;;27.20;45.70;;;;;;4978074;28;20031;-66
2023/07/20 03:50:48;;;;;;;1.10;0.80;;;27.20;45.70;;;;;;4978602;28;20031;-66
2023/07/20 03:53:15;;;;;;;1.40;1.00;;;27.20;45.60;;;;;;4977317;28;20062;-67
2023/07/20 03:55:51;;;;;;;1.40;1.02;;;27.20;45.60;;;;;;4975889;28;20114;-65
2023/07/20 03:58:18;;;;;;;2.25;1.20;;;27.20;45.70;;;;;;4982765;28;20109;-66
2023/07/20 04:00:48;;;;;;;2.08;1.30;;;27.20;44.90;;;;;;4979700;28;20026;-66
2023/07/20 04:03:15;;;;;;;1.65;1.02;;;27.20;43.80;;;;;;4982847;28;20027;-65
2023/07/20 04:05:40;;;;;;;2.05;1.20;;;27.20;43.10;;;;;;4964857;28;20377;-66
2023/07/20 04:08:06;;;;;;;1.90;1.27;;;27.20;42.40;;;;;;4979232;28;20037;-66
2023/07/20 04:10:32;;;;;;;1.80;1.10;;;27.20;42.00;;;;;;4982832;28;20496;-66
2023/07/20 04:12:57;;;;;;;2.03;1.30;;;27.20;41.70;;;;;;4980477;28;20058;-66
2023/07/20 04:15:23;;;;;;;2.42;1.27;;;27.10;41.50;;;;;;4981482;28;20511;-66
2023/07/20 04:17:49;;;;;;;2.20;1.25;;;27.10;41.30;;;;;;4982260;28;20023;-66
2023/07/20 04:20:14;;;;;;;1.67;1.15;;;27.10;41.50;;;;;;4980783;28;20038;-66
2023/07/20 04:22:40;;;;;;;2.53;1.33;;;27.00;41.70;;;;;;4982476;28;20529;-65
2023/07/20 04:25:06;;;;;;;1.92;1.10;;;27.00;41.70;;;;;;4971821;28;20027;-66
2023/07/20 04:27:32;;;;;;;2.83;1.50;;;27.00;41.60;;;;;;4980176;28;20027;-66
2023/07/20 04:30:01;;;;;;;1.73;1.20;;;27.00;41.30;;;;;;4966000;28;20065;-66
2023/07/20 04:32:26;;;;;;;2.55;1.50;;;27.00;41.20;;;;;;4980058;28;20045;-64
2023/07/20 04:34:52;;;;;;;3.22;1.40;;;27.00;41.00;;;;;;4981449;28;20031;-65
2023/07/20 04:37:18;;;;;;;3.45;1.70;;;26.90;40.80;;;;;;4981141;28;20034;-65
2023/07/20 04:39:43;;;;;;;3.13;1.48;;;26.90;40.70;;;;;;4980393;28;20041;-65
2023/07/20 04:42:09;;;;;;;3.13;1.70;;;26.90;40.70;;;;;;4979783;28;20101;-65
2023/07/20 04:44:35;;;;;;;3.97;1.50;;;26.80;40.70;;;;;;4979211;28;20432;-64
2023/07/20 04:47:00;;;;;;;4.05;1.58;;;26.80;40.60;;;;;;4979649;28;20034;-65
2023/07/20 04:49:26;;;;;;;3.20;1.55;;;26.80;40.70;;;;;;4981085;28;20231;-65
2023/07/20 04:51:52;;;;;;;4.15;1.42;;;26.70;40.70;;;;;;4982440;28;20394;-65
2023/07/20 04:54:18;;;;;;;2.97;1.48;;;26.70;40.80;;;;;;4979599;28;20030;-65
2023/07/20 04:56:44;;;;;;;3.67;1.67;;;26.70;40.90;;;;;;4978993;28;20030;-65
2023/07/20 04:59:10;;;;;;;2.72;1.45;;;26.70;41.00;;;;;;4982609;28;20380;-65
2023/07/20 05:01:35;;;;;;;3.63;1.50;;;26.60;40.90;;;;;;4979983;28;20642;-65
2023/07/20 05:04:02;;;;;;;2.50;1.30;;;26.60;40.80;;;;;;4981786;28;20022;-65
2023/07/20 05:06:27;;;;;;;2.53;1.30;;;26.60;40.90;;;;;;4981122;28;20039;-65
2023/07/20 05:08:53;;;;;;;2.25;1.30;;;26.60;40.80;;;;;;4978280;28;20394;-65
2023/07/20 05:11:19;;;;;;;1.77;1.20;;;26.60;40.80;;;;;;4969914;28;20081;-65
2023/07/20 05:13:45;;;;;;;2.50;1.50;;;26.50;40.90;;;;;;4979670;28;20033;-65
2023/07/20 05:16:11;;;;;;;2.08;1.45;;;26.60;40.90;;;;;;4979205;28;20106;-65
2023/07/20 05:18:36;;;;;;;2.13;1.50;;;26.60;40.80;;;;;;4981097;28;20085;-65
2023/07/20 05:21:02;;;;;;;2.47;1.38;;;26.50;40.70;;;;;;4980927;28;20056;-65
2023/07/20 05:23:28;;;;;;;2.65;1.50;;;26.50;40.60;;;;;;4980917;28;20075;-65
2023/07/20 05:25:58;;;;;;;2.90;1.30;;;26.50;40.60;;;;;;4964181;28;20030;-65
2023/07/20 05:28:24;;;;;;;2.15;1.40;;;26.50;40.60;;;;;;4978997;28;20545;-64
2023/07/20 05:30:54;;;;;;;2.22;1.33;;;26.40;40.70;;;;;;4980172;28;20513;-65
2023/07/20 05:33:20;;;;;;;2.72;1.40;;;26.40;40.60;;;;;;4979518;28;20034;-65
2023/07/20 05:35:46;;;;;;;2.22;1.42;;;26.40;40.70;;;;;;4979383;28;20114;-65
2023/07/20 05:38:12;;;;;;;2.55;1.50;;;26.40;40.70;;;;;;4979166;28;20049;-65
2023/07/20 05:40:42;;;;;;;3.17;1.40;;;26.40;40.80;;;;;;4978454;28;20506;-65
2023/07/20 05:43:08;;;;;;;2.75;1.52;;;26.30;40.80;;;;;;4978562;28;20101;-65
2023/07/20 05:45:34;;;;;;;2.65;1.27;;;26.30;40.90;;;;;;4978165;28;20027;-65
2023/07/20 05:47:59;;;;;;;2.45;1.67;;;26.30;41.10;;;;;;4971161;28;20475;-65
2023/07/20 05:50:25;;;;;;;2.20;1.38;;;26.30;41.10;;;;;;4979719;28;20461;-65
2023/07/20 05:52:54;;;;;;;2.35;1.30;;;26.20;41.00;;;;;;4963962;28;20031;-64
2023/07/20 05:55:20;;;;;;;2.60;1.65;;;26.20;41.20;;;;;;4961763;28;20558;-65
2023/07/20 05:57:47;;;;;;;2.28;1.30;;;26.20;41.20;;;;;;4963567;28;20061;-65
2023/07/20 06:00:13;;;;;;;2.25;1.35;;;26.20;41.30;;;;;;4969896;28;20044;-65
2023/07/20 06:02:40;;;;;;;3.25;1.63;;;26.20;41.40;;;;;;4965758;28;20026;-65
2023/07/20 06:05:09;;;;;;;2.60;1.30;;;26.20;41.40;;;;;;4963425;28;20022;-65
2023/07/20 06:07:38;;;;;;;;;;;26.20;41.40;;;;;;4981462;28;20050;-65
2023/07/20 06:10:05;;;;;;;2.60;1.40;;;26.10;41.10;;;;;;4977476;28;20362;-65
2023/07/20 06:12:32;;;;;;;1.70;1.20;;;26.10;41.20;;;;;;4961023;28;20031;-65
2023/07/20 06:15:02;;;;;;;3.33;1.40;;;26.10;41.10;;;;;;4960078;28;20038;-65
2023/07/20 06:17:27;;;;;;;2.55;1.50;;;26.10;41.10;;;;;;4979837;28;20049;-64
2023/07/20 06:19:53;;;;;;;2.65;1.50;;;26.00;41.00;;;;;;4977686;28;20027;-65
2023/07/20 06:22:18;;;;;;;2.80;1.48;;;26.00;40.90;;;;;;4979159;28;20027;-65
2023/07/20 06:24:44;;;;;;;2.67;1.70;;;26.00;40.90;;;;;;4979035;28;20057;-65
2023/07/20 06:27:10;;;;;;;2.50;1.48;;;26.00;40.90;;;;;;4978718;28;20508;-64
2023/07/20 06:29:35;;;;;;;2.75;1.40;;;26.00;40.90;;;;;;4976318;28;20562;-65
2023/07/20 06:32:01;;;;;;;4.50;1.80;;;25.90;40.70;;;;;;4978466;28;20069;-65
2023/07/20 06:34:26;;;;;;;2.50;1.52;;;25.90;40.50;;;;;;4981092;28;20072;-66
2023/07/20 06:36:52;;;;;;;2.47;1.50;;;25.80;40.60;;;;;;4978511;28;20034;-66
2023/07/20 06:39:18;;;;;;;2.10;1.40;;;25.80;40.80;;;;;;4978621;28;20034;-65
2023/07/20 06:41:43;;;;;;;3.03;1.60;;;25.80;41.10;;;;;;4963879;28;20035;-69
2023/07/20 06:44:09;;;;;;;2.28;1.10;;;25.80;41.50;;;;;;4980040;28;20019;-70
2023/07/20 06:46:35;;;;;;;2.10;1.35;;;25.80;42.60;;;;;;4977048;28;20187;-69
2023/07/20 06:49:00;;;;;;;2.03;1.30;;;25.70;42.50;;;;;;4965134;28;20548;-69
2023/07/20 06:51:26;;;;;;;1.95;1.10;;;25.80;42.40;;;;;;4977793;28;20068;-65
2023/07/20 06:53:52;;;;;;;2.70;1.20;;;25.70;42.60;;;;;;4980980;28;20602;-68
2023/07/20 06:56:20;;;;;;;2.03;1.30;;;25.70;42.30;;;;;;4978268;28;20060;-69
2023/07/20 06:58:46;;;;;;;1.92;1.20;;;25.70;42.80;;;;;;4976254;28;20034;-69
2023/07/20 07:01:12;;;;;;;1.52;1.10;;;25.80;43.20;;;;;;4980317;28;20030;-69
2023/07/20 07:03:37;;;;;;;1.95;1.08;;;25.80;43.30;;;;;;4976492;28;20026;-66
2023/07/20 07:06:03;;;;;;;2.05;1.10;;;25.80;43.20;;;;;;4978497;28;20367;-68
2023/07/20 07:08:29;;;;;;;1.92;1.13;;;25.80;43.50;;;;;;4978435;28;20463;-69
2023/07/20 07:10:55;;;;;;;2.85;1.20;;;25.80;43.60;;;;;;4980236;28;20367;-68
2023/07/20 07:13:20;;;;;;;2.28;1.20;;;25.90;43.70;;;;;;4968434;28;20038;-70
2023/07/20 07:15:46;;;;;;;1.85;1.17;;;25.90;43.90;;;;;;4979228;28;20026;-69
2023/07/20 07:18:12;;;;;;;1.75;1.00;;;25.90;43.70;;;;;;4978990;28;20375;-69
2023/07/20 07:20:37;;;;;;;2.00;1.20;;;26.00;43.70;;;;;;4969109;28;20022;-67
2023/07/20 07:23:03;;;;;;;2.00;1.20;;;26.00;43.70;;;;;;4980152;28;20030;-69
2023/07/20 07:25:30;;;;;;;1.85;1.20;;;26.00;43.70;;;;;;4978249;28;20033;-67
2023/07/20 07:27:55;;;;;;;2.13;1.13;;;26.10;43.70;;;;;;4976513;28;20022;-68
2023/07/20 07:30:21;;;;;;;2.53;1.40;;;26.10;44.50;;;;;;4960933;28;20553;-67
2023/07/20 07:32:47;;;;;;;2.95;1.40;;;26.10;43.90;;;;;;4982726;28;20077;-66
2023/07/20 07:35:13;;;;;;;2.13;1.40;;;26.20;43.80;;;;;;4972750;28;20418;-68
2023/07/20 07:37:39;;;;;;;1.42;1.00;;;26.20;43.70;;;;;;4973449;28;20126;-69
2023/07/20 07:40:08;;;;;;;1.75;1.10;;;26.20;43.90;;;;;;4984033;28;20125;-69
2023/07/20 07:42:33;;;;;;;1.50;1.00;;;26.20;44.10;;;;;;4979843;28;20441;-67
2023/07/20 07:44:59;;;;;;;3.28;1.30;;;26.20;44.10;;;;;;4983420;28;20031;-66
2023/07/20 07:47:25;;;;;;;2.00;1.20;;;26.30;44.10;;;;;;4982588;28;20030;-64
2023/07/20 07:49:50;;;;;;;2.17;1.05;;;26.30;44.10;;;;;;4982242;28;20554;-67
2023/07/20 07:52:16;;;;;;;1.83;1.20;;;26.30;44.00;;;;;;4983122;28;20034;-66
2023/07/20 07:54:42;;;;;;;2.17;1.20;;;26.30;44.10;;;;;;4965542;28;20442;-68
2023/07/20 07:57:07;;;;;;;1.75;1.10;;;26.30;44.20;;;;;;4981225;28;20034;-69
2023/07/20 07:59:36;;;;;;;2.03;1.05;;;26.30;44.20;;;;;;4981776;28;20039;-69
2023/07/20 08:02:04;;;;;;;1.73;1.10;;;26.40;44.40;;;;;;4981622;28;20033;-68
2023/07/20 08:04:30;;;;;;;1.70;1.05;;;26.40;44.20;;;;;;4981871;28;20467;-68
2023/07/20 08:06:56;;;;;;;1.67;1.10;;;26.40;44.40;;;;;;4980468;28;20022;-69
2023/07/20 08:09:21;;;;;;;2.08;1.25;;;26.40;44.20;;;;;;4983097;28;20034;-67
2023/07/20 08:11:48;;;;;;;1.58;1.00;;;26.40;44.20;;;;;;4982049;28;20042;-68
2023/07/20 08:14:13;;;;;;;1.38;0.90;;;26.50;44.40;;;;;;4961858;28;20069;-68
2023/07/20 08:16:43;;;;;;;2.13;1.30;;;26.50;44.40;;;;;;4979839;28;20073;-65
2023/07/20 08:19:08;;;;;;;;;;;26.50;44.20;;;;;;4982732;28;20022;-68
2023/07/20 08:21:34;;;;;;;1.70;1.00;;;26.50;44.30;;;;;;4978761;28;20226;-68
2023/07/20 08:24:00;;;;;;;2.20;1.17;;;26.60;44.30;;;;;;4983728;28;20030;-68
2023/07/20 08:26:26;;;;;;;1.85;1.10;;;26.60;44.20;;;;;;4981885;28;20031;-70
2023/07/20 08:28:51;;;;;;;1.83;1.10;;;26.60;44.10;;;;;;4979917;28;20093;-67
2023/07/20 08:31:18;;;;;;;1.80;1.10;;;26.60;44.20;;;;;;4980520;28;20066;-67
2023/07/20 08:33:43;;;;;;;1.83;1.08;;;26.60;44.40;;;;;;4982619;28;20505;-68
2023/07/20 08:36:09;;;;;;;1.75;1.17;;;26.70;44.50;;;;;;4981628;28;20101;-69
2023/07/20 08:38:34;;;;;;;1.58;1.10;;;26.70;44.40;;;;;;4980369;28;20031;-68
2023/07/20 08:41:01;;;;;;;1.25;0.90;;;26.70;45.10;;;;;;4980890;28;20038;-68
2023/07/20 08:43:28;;;;;;;0.98;0.80;;;26.70;44.60;;;;;;4979018;28;20045;-65
2023/07/20 08:45:58;;;;;;;2.15;1.05;;;26.70;45.20;;;;;;4982002;28;20756;-64
2023/07/20 08:48:26;;;;;;;3.00;1.20;;;26.70;44.50;;;;;;4980532;28;20050;-64
2023/07/20 08:50:53;;;;;;;2.45;1.30;;;26.80;44.40;;;;;;4983113;28;20054;-64
2023/07/20 08:53:22;;;;;;;2.05;1.20;;;26.80;44.20;;;;;;4980598;28;20046;-64
2023/07/20 08:55:51;;;;;;;2.00;1.20;;;26.80;44.10;;;;;;4982104;28;20073;-68
2023/07/20 08:58:17;;;;;;;2.60;1.35;;;26.90;44.20;;;;;;4980514;28;20475;-67
2023/07/20 09:00:44;;;;;;;1.58;1.10;;;26.90;44.20;;;;;;4981777;28;20030;-66
2023/07/20 09:03:11;;;;;;;1.85;1.23;;;26.90;44.10;;;;;;4979473;28;20364;-67
2023/07/20 09:05:36;;;;;;;1.58;1.00;;;26.90;44.00;;;;;;4980037;28;20082;-69
2023/07/20 09:08:05;;;;;;;2.17;1.10;;;27.00;44.00;;;;;;4981358;28;20423;-66
2023/07/20 09:10:31;;;;;;;1.77;1.10;;;27.00;44.00;;;;;;4981505;28;20502;-66
2023/07/20 09:12:57;;;;;;;1.67;1.10;;;27.00;44.00;;;;;;4980679;28;20495;-67
2023/07/20 09:15:23;;;;;;;2.15;1.20;;;27.00;44.00;;;;;;4979934;28;20030;-69
2023/07/20 09:17:50;;;;;;;2.17;1.13;;;27.00;43.90;;;;;;4963285;28;20023;-68
2023/07/20 09:20:19;;;;;;;2.40;1.13;;;27.00;43.90;;;;;;4962247;28;20041;-68
2023/07/20 09:22:45;;;;;;;1.70;1.13;;;27.00;43.90;;;;;;4978815;28;20396;-68
2023/07/20 09:25:16;;;;;;;1.80;1.10;;;27.10;44.00;;;;;;4964659;28;20022;-69
2023/07/20 09:27:46;;;;;;;1.52;1.10;;;27.10;43.90;;;;;;4966819;28;20038;-68
2023/07/20 09:30:14;;;;;;;1.42;1.10;;;27.10;43.90;;;;;;4977317;28;20050;-67
2023/07/20 09:32:47;;;;;;;2.53;1.05;;;27.10;43.90;;;;;;4981080;28;20041;-67
2023/07/20 09:35:17;;;;;;;1.98;1.05;;;27.10;43.90;;;;;;4964214;28;20509;-68
2023/07/20 09:37:47;;;;;;;2.30;1.20;;;27.10;43.90;;;;;;4979877;28;20101;-69
2023/07/20 09:40:17;;;;;;;1.83;1.10;;;27.10;43.90;;;;;;4980935;28;20078;-68
2023/07/20 09:42:43;;;;;;;2.80;1.13;;;27.10;43.90;;;;;;4979146;28;20019;-67
2023/07/20 09:45:09;;;;;;;1.70;1.00;;;27.20;44.00;;;;;;4976899;28;20541;-67
2023/07/20 09:47:37;;;;;;;1.55;1.08;;;27.10;44.00;;;;;;4980642;28;20102;-68
2023/07/20 09:50:04;;;;;;;1.95;1.10;;;27.10;43.90;;;;;;4977731;28;20460;-68
2023/07/20 09:52:30;;;;;;;1.90;1.13;;;27.20;43.90;;;;;;4978950;28;20074;-69
2023/07/20 09:54:57;;;;;;;1.25;0.90;;;27.20;43.90;;;;;;4977144;28;20088;-68
2023/07/20 09:57:23;;;;;;;2.22;1.10;;;27.20;43.90;;;;;;4978849;28;20031;-67
2023/07/20 09:59:49;;;;;;;1.85;1.10;;;27.20;43.90;;;;;;4981658;28;20541;-68
2023/07/20 10:02:22;;;;;;;1.13;0.82;;;27.20;43.80;;;;;;4981237;28;20035;-68
2023/07/20 10:04:53;;;;;;;1.42;0.88;;;27.20;43.80;;;;;;4979571;28;20026;-68
2023/07/20 10:07:22;;;;;;;1.20;0.82;;;27.20;43.80;;;;;;4979288;28;20471;-68
2023/07/20 10:09:51;;;;;;;2.20;1.00;;;27.20;43.80;;;;;;4961730;28;20026;-68
2023/07/20 10:12:19;;;;;;;1.42;1.00;;;27.20;43.80;;;;;;4980672;28;20389;-68
2023/07/20 10:14:58;;;;;;;1.58;0.90;;;27.20;43.80;;;;;;4977264;28;20509;-68
2023/07/20 10:17:25;;;;;;;1.85;0.90;;;27.20;43.70;;;;;;4978489;28;20529;-68
2023/07/20 10:19:56;;;;;;;1.23;0.90;;;27.30;43.80;;;;;;4982173;28;20027;-67
2023/07/20 10:22:26;;;;;;;1.63;1.10;;;27.20;43.70;;;;;;4976638;28;20030;-68
2023/07/20 10:24:54;;;;;;;2.00;1.00;;;27.20;43.70;;;;;;4977033;28;20113;-68
2023/07/20 10:27:20;;;;;;;1.00;0.80;;;27.30;43.70;;;;;;4978583;28;20022;-66
2023/07/20 10:29:47;;;;;;;1.40;1.02;;;27.30;43.70;;;;;;4978117;28;20022;-66
2023/07/20 10:32:13;;;;;;;1.48;1.00;;;27.30;43.80;;;;;;4977692;28;20046;-66
2023/07/20 10:34:39;;;;;;;1.23;0.90;;;27.30;43.70;;;;;;4970953;28;20038;-66
2023/07/20 10:37:05;;;;;;;1.30;0.90;;;27.30;43.70;;;;;;4962345;28;20039;-66
2023/07/20 10:39:31;;;;;;;1.80;1.05;;;27.30;43.60;;;;;;4981385;28;20041;-65
2023/07/20 10:42:10;;;;;;;1.40;1.00;;;27.30;43.50;;;;;;4983533;28;20110;-66
2023/07/20 10:44:40;;;;;;;1.80;1.08;;;27.30;43.50;;;;;;4985443;28;20113;-65
2023/07/20 10:47:13;;;;;;;1.23;0.93;;;27.30;43.40;;;;;;4970730;28;20022;-65
2023/07/20 10:49:58;;;;;;;1.13;0.90;;;27.30;43.30;;;;;;4988582;28;20030;-66
2023/07/20 10:52:24;;;;;;;1.13;0.90;;;27.30;43.20;;;;;;4988781;28;20474;-65
2023/07/20 10:54:50;;;;;;;1.52;1.02;;;27.40;43.20;;;;;;4988853;28;20038;-66
2023/07/20 10:57:30;;;;;;;1.52;0.93;;;27.30;43.10;;;;;;4988678;28;20048;-66
2023/07/20 11:00:12;;;;;;;1.25;0.90;;;27.40;43.20;;;;;;4975774;28;20023;-65
2023/07/20 11:02:47;;;;;;;1.23;1.00;;;27.40;43.10;;;;;;4987566;28;20106;-66
2023/07/20 11:05:32;;;;;;;1.77;1.00;;;27.40;43.00;;;;;;4988705;28;20019;-65
2023/07/20 11:07:57;;;;;;;1.50;1.10;;;27.40;43.00;;;;;;4991262;28;20113;-65
2023/07/20 11:10:23;;;;;;;1.77;1.10;;;27.40;43.10;;;;;;4994171;28;20518;-66
2023/07/20 11:13:16;;;;;;;1.58;1.10;;;27.40;43.10;;;;;;4996649;28;20104;-66
2023/07/20 11:16:08;;;;;;;1.13;0.90;;;27.40;43.40;;;;;;4995273;28;20371;-66
2023/07/20 11:18:39;;;;;;;1.27;0.93;;;27.40;42.80;;;;;;4987405;28;20074;-66
2023/07/20 11:21:09;;;;;;;1.40;0.90;;;27.40;42.80;;;;;;4998586;28;20011;-65
2023/07/20 11:23:38;;;;;;;1.20;0.93;;;27.40;42.80;;;;;;4994086;28;20025;-68
2023/07/20 11:26:03;;;;;;;1.80;1.20;;;27.40;42.80;;;;;;4994647;28;20054;-68
2023/07/20 11:28:30;;;;;;;2.05;1.00;;;27.40;42.80;;;;;;4991516;28;20030;-68
2023/07/20 11:30:56;;;;;;;1.30;0.90;;;27.50;42.90;;;;;;4992492;28;20034;-67
2023/07/20 11:33:21;;;;;;;1.42;0.93;;;27.50;42.80;;;;;;4993800;28;20505;-67
2023/07/20 11:35:50;;;;;;;2.28;1.00;;;27.50;42.90;;;;;;4978215;28;20118;-66
2023/07/20 11:38:16;;;;;;;;;;;27.50;42.80;;;;;;4993365;28;20022;-70
2023/07/20 11:40:45;;;;;;;1.20;0.90;;;27.50;42.80;;;;;;4994844;28;19968;-67
2023/07/20 11:43:14;;;;;;;2.20;0.90;;;27.50;42.90;;;;;;4976017;28;20046;-68
2023/07/20 11:45:39;;;;;;;1.85;1.13;;;27.50;43.00;;;;;;4994520;28;20108;-71
2023/07/20 11:48:05;;;;;;;1.48;0.90;;;27.50;43.00;;;;;;4992518;28;20046;-69
2023/07/20 11:50:32;;;;;;;1.33;0.95;;;27.60;43.10;;;;;;4995757;28;20170;-69
2023/07/20 11:52:58;;;;;;;1.20;0.90;;;27.60;43.20;;;;;;4993778;28;20105;-68
2023/07/20 11:55:24;;;;;;;1.75;1.00;;;27.60;43.20;;;;;;4992643;28;20037;-68
2023/07/20 11:58:19;;;;;;;2.30;1.13;;;27.60;43.10;;;;;;4994289;28;20030;-68
2023/07/20 12:00:45;;;;;;;1.45;1.10;;;27.60;43.20;;;;;;4976206;28;20054;-67
2023/07/20 12:03:12;;;;;;;1.33;0.93;;;27.60;43.30;;;;;;4993626;28;20019;-68
2023/07/20 12:05:38;;;;;;;1.00;0.90;;;27.60;43.30;;;;;;4994184;28;20717;-67
2023/07/20 12:08:04;;;;;;;1.08;0.90;;;27.60;43.30;;;;;;4997220;28;20018;-66
2023/07/20 12:10:30;;;;;;;1.15;0.75;;;27.70;43.30;;;;;;4993410;28;20050;-67
2023/07/20 12:13:07;;;;;;;1.30;0.90;;;27.60;43.30;;;;;;4980860;28;20093;-68
2023/07/20 12:15:33;;;;;;;1.65;1.00;;;27.70;43.30;;;;;;4994872;28;20134;-68
2023/07/20 12:18:02;;;;;;;1.10;0.90;;;27.70;43.40;;;;;;4976161;28;20050;-67
2023/07/20 12:20:38;;;;;;;1.20;0.90;;;27.70;43.30;;;;;;4983141;28;20539;-67
2023/07/20 12:23:11;;;;;;;1.40;1.00;;;27.70;43.30;;;;;;4991282;28;20049;-68
2023/07/20 12:25:44;;;;;;;1.38;1.00;;;27.70;43.30;;;;;;4992595;28;20050;-68
2023/07/20 12:28:13;;;;;;;1.35;0.90;;;27.70;43.30;;;;;;4988216;28;20032;-68
2023/07/20 12:30:40;;;;;;;1.48;0.90;;;27.70;43.30;;;;;;4987273;28;20035;-68
2023/07/20 12:33:06;;;;;;;1.63;1.00;;;27.70;43.30;;;;;;4986802;28;20165;-65
2023/07/20 12:35:35;;;;;;;1.20;0.90;;;27.70;43.40;;;;;;4985890;28;20423;-65
2023/07/20 12:38:01;;;;;;;1.20;0.90;;;27.70;43.40;;;;;;4993061;28;20078;-63
2023/07/20 12:40:27;;;;;;;2.17;1.00;;;27.80;43.40;;;;;;4990539;28;20111;-67
2023/07/20 12:42:53;;;;;;;1.00;0.85;;;27.80;43.30;;;;;;4993626;28;20022;-68
2023/07/20 12:45:19;;;;;;;1.50;1.10;;;27.80;43.30;;;;;;4988877;28;20089;-66
2023/07/20 12:47:44;;;;;;;1.40;0.90;;;27.80;43.30;;;;;;4992000;28;20417;-66
2023/07/20 12:50:11;;;;;;;1.27;1.15;;;27.80;43.30;;;;;;4992094;28;20030;-66